Time;durP1;ratioP1;P1;durP2;ratioP2;P2;SDS_P1;SDS_P2;PMS_P1;PMS_P2;Temp;Humidity;BMP_temperature;BMP_pressure;BME280_temperature;BME280_humidity;BME280_pressure;Samples;Min_cycle;Max_cycle;Signal;HPM_P1;HPM_P2
2022/08/03 00:01:50;;;;;;;1.85;1.17;;;;;;;28.38;40.44;101294.25;5037744;28;20025;-67
2022/08/03 00:04:15;;;;;;;3.40;1.40;;;;;;;28.34;40.21;101283.94;5054499;28;20407;-68
2022/08/03 00:06:40;;;;;;;1.70;1.08;;;;;;;28.39;40.16;101295.09;5054119;28;20108;-67
2022/08/03 00:09:06;;;;;;;3.03;1.02;;;;;;;28.36;40.52;101290.88;5054136;28;20098;-68
2022/08/03 00:11:32;;;;;;;8.02;1.20;;;;;;;28.31;40.74;101294.31;5054195;28;20151;-67
2022/08/03 00:13:57;;;;;;;5.53;1.35;;;;;;;28.29;41.24;101290.13;5037687;28;20041;-68
2022/08/03 00:16:25;;;;;;;2.80;1.33;;;;;;;28.28;41.50;101286.53;5054265;28;20029;-67
2022/08/03 00:18:50;;;;;;;2.08;0.95;;;;;;;28.25;41.42;101292.50;5054007;28;20052;-68
2022/08/03 00:21:16;;;;;;;4.35;1.33;;;;;;;28.24;41.31;101296.34;5054139;28;20042;-68
2022/08/03 00:23:41;;;;;;;2.97;1.25;;;;;;;28.22;40.72;101289.41;5037410;28;20041;-67
2022/08/03 00:26:06;;;;;;;1.73;1.40;;;;;;;28.18;41.21;101294.53;5054081;28;20368;-68
2022/08/03 00:28:32;;;;;;;6.80;1.42;;;;;;;28.12;40.82;101295.47;5020800;28;20064;-67
2022/08/03 00:30:57;;;;;;;3.20;1.00;;;;;;;28.12;40.85;101300.97;5037246;28;20395;-67
2022/08/03 00:33:23;;;;;;;4.90;1.35;;;;;;;28.07;41.54;101292.56;5053969;28;20024;-67
2022/08/03 00:35:48;;;;;;;2.53;1.10;;;;;;;28.04;41.62;101293.03;5037272;28;20100;-67
2022/08/03 00:38:13;;;;;;;4.38;1.15;;;;;;;28.03;41.74;101296.84;5053873;28;20033;-67
2022/08/03 00:40:39;;;;;;;1.88;1.45;;;;;;;28.03;41.92;101299.59;5053716;28;20021;-67
2022/08/03 00:43:06;;;;;;;3.03;1.35;;;;;;;27.99;41.94;101298.38;5054939;28;20029;-67
2022/08/03 00:45:39;;;;;;;5.60;1.50;;;;;;;27.99;42.18;101297.53;5020807;28;20033;-67
2022/08/03 00:48:06;;;;;;;4.15;1.35;;;;;;;27.97;41.31;101291.41;5053551;28;20029;-67
2022/08/03 00:50:34;;;;;;;9.77;2.10;;;;;;;27.93;41.48;101296.53;5054672;28;20021;-68
2022/08/03 00:53:02;;;;;;;6.80;1.25;;;;;;;27.91;42.11;101293.19;5053602;28;20025;-68
2022/08/03 00:55:27;;;;;;;4.18;1.33;;;;;;;27.88;42.21;101292.78;5036906;28;20033;-67
2022/08/03 00:57:53;;;;;;;1.73;1.23;;;;;;;27.84;41.71;101283.28;5054644;28;20029;-67
2022/08/03 01:00:26;;;;;;;6.68;1.83;;;;;;;27.82;42.05;101286.28;5036655;28;20506;-67
2022/08/03 01:02:52;;;;;;;6.68;1.45;;;;;;;27.79;41.98;101283.16;5053298;28;20025;-68
2022/08/03 01:05:18;;;;;;;1.75;1.00;;;;;;;27.76;42.16;101287.22;5053300;28;20368;-67
2022/08/03 01:08:04;;;;;;;6.53;1.17;;;;;;;27.69;42.03;101278.22;5053140;28;20053;-67
2022/08/03 01:10:56;;;;;;;3.28;1.20;;;;;;;27.64;41.43;101280.78;5053176;28;20422;-67
2022/08/03 01:13:24;;;;;;;3.67;1.25;;;;;;;27.58;41.58;101277.03;5053714;28;20071;-67
2022/08/03 01:16:08;;;;;;;7.95;1.52;;;;;;;27.53;41.91;101273.28;5054304;28;20025;-67
2022/08/03 01:19:06;;;;;;;6.95;1.27;;;;;;;27.50;42.04;101274.59;5053618;28;20084;-67
2022/08/03 01:21:59;;;;;;;5.00;1.55;;;;;;;27.47;41.74;101274.25;5053285;28;20080;-67
2022/08/03 01:24:28;;;;;;;2.42;1.38;;;;;;;27.46;41.95;101278.91;5035727;28;20036;-67
2022/08/03 01:26:59;;;;;;;3.05;1.70;;;;;;;27.45;42.27;101271.69;5054023;28;20063;-68
2022/08/03 01:29:46;;;;;;;1.60;1.30;;;;;;;27.44;42.49;101267.28;5052924;28;20041;-68
2022/08/03 01:32:15;;;;;;;4.10;1.70;;;;;;;27.41;42.24;101269.63;5053996;28;20059;-68
2022/08/03 01:34:44;;;;;;;3.92;1.40;;;;;;;27.40;41.67;101273.41;5052681;28;20029;-68
2022/08/03 01:37:11;;;;;;;2.83;1.48;;;;;;;27.35;41.91;101259.50;5052584;28;20040;-68
2022/08/03 01:39:38;;;;;;;2.45;1.20;;;;;;;27.35;42.52;101265.00;5036005;28;20527;-67
2022/08/03 01:42:06;;;;;;;3.88;1.30;;;;;;;27.34;42.71;101264.16;5052634;28;20487;-68
2022/08/03 01:44:35;;;;;;;8.93;1.02;;;;;;;27.32;42.44;101268.22;5052524;28;20486;-67
2022/08/03 01:47:01;;;;;;;4.32;1.33;;;;;;;27.30;42.58;101262.13;5052604;28;20107;-67
2022/08/03 01:49:29;;;;;;;1.10;1.00;;;;;;;27.26;42.29;101261.72;5052464;28;20478;-67
2022/08/03 01:51:55;;;;;;;1.98;1.70;;;;;;;27.21;42.67;101246.97;5035734;28;20024;-67
2022/08/03 01:54:22;;;;;;;2.78;1.17;;;;;;;27.22;42.71;101251.41;5035814;28;20031;-67
2022/08/03 01:56:48;;;;;;;3.75;1.42;;;;;;;27.20;42.59;101257.13;5052381;28;20540;-67
2022/08/03 01:59:15;;;;;;;3.75;1.42;;;;;;;27.16;42.62;101255.91;5053422;28;20028;-67
2022/08/03 02:01:42;;;;;;;5.38;1.50;;;;;;;27.15;42.81;101255.06;5035678;28;20025;-67
2022/08/03 02:04:08;;;;;;;4.03;2.15;;;;;;;27.13;42.72;101248.13;5035541;28;20021;-68
2022/08/03 02:06:34;;;;;;;2.78;1.48;;;;;;;27.14;42.92;101258.03;5035574;28;20029;-67
2022/08/03 02:09:01;;;;;;;2.58;1.40;;;;;;;27.12;42.46;101262.94;5052327;28;20032;-67
2022/08/03 02:11:29;;;;;;;2.40;1.25;;;;;;;27.08;42.80;101254.28;5052123;28;20028;-67
2022/08/03 02:13:57;;;;;;;2.30;1.42;;;;;;;27.00;42.83;101257.31;5052067;28;20403;-68
2022/08/03 02:16:23;;;;;;;3.25;1.45;;;;;;;26.99;43.43;101261.16;5052082;28;20074;-67
2022/08/03 02:18:49;;;;;;;5.00;1.33;;;;;;;26.94;43.12;101255.47;5051885;28;20098;-67
2022/08/03 02:21:15;;;;;;;6.38;1.50;;;;;;;26.93;43.33;101262.06;5053260;28;20376;-67
2022/08/03 02:23:40;;;;;;;6.80;1.50;;;;;;;26.92;43.36;101259.50;5052057;28;20052;-68
2022/08/03 02:26:08;;;;;;;6.50;1.42;;;;;;;26.89;42.81;101254.47;5035331;28;20025;-68
2022/08/03 02:28:36;;;;;;;1.58;1.17;;;;;;;26.87;43.20;101257.44;5051924;28;20025;-67
2022/08/03 02:31:04;;;;;;;8.07;1.55;;;;;;;26.84;43.61;101255.16;5051602;28;20032;-67
2022/08/03 02:33:34;;;;;;;6.10;2.00;;;;;;;26.81;42.91;101258.34;5051983;28;20440;-67
2022/08/03 02:36:00;;;;;;;5.13;1.55;;;;;;;26.76;43.43;101252.66;5035170;28;20486;-67
2022/08/03 02:38:30;;;;;;;5.15;1.48;;;;;;;26.74;43.45;101256.69;5051881;28;20108;-67
2022/08/03 02:40:57;;;;;;;6.60;1.60;;;;;;;26.72;43.45;101251.41;5035132;28;20025;-67
2022/08/03 02:43:23;;;;;;;12.70;1.77;;;;;;;26.69;43.58;101251.03;5051802;28;20436;-68
2022/08/03 02:45:50;;;;;;;3.85;1.50;;;;;;;26.69;43.62;101249.09;5051791;28;20499;-67
2022/08/03 02:48:28;;;;;;;4.32;1.30;;;;;;;26.66;43.13;101244.09;5051735;28;20064;-66
2022/08/03 02:50:55;;;;;;;8.90;1.77;;;;;;;26.64;43.51;101240.69;5051838;28;20155;-67
2022/08/03 02:53:22;;;;;;;4.40;1.67;;;;;;;26.63;43.35;101244.53;5035409;28;20125;-68
2022/08/03 02:55:48;;;;;;;4.68;1.40;;;;;;;26.62;43.57;101242.84;5035451;28;20032;-66
2022/08/03 02:58:16;;;;;;;3.33;1.73;;;;;;;26.63;43.34;101247.28;5051679;28;20029;-67
2022/08/03 03:00:43;;;;;;;2.38;1.50;;;;;;;26.59;43.64;101243.28;5051633;28;20431;-67
2022/08/03 03:03:09;;;;;;;3.55;1.42;;;;;;;26.62;43.57;101251.09;5051561;28;20025;-67
2022/08/03 03:05:36;;;;;;;1.73;1.42;;;;;;;26.57;44.34;101242.69;5051616;28;20033;-66
2022/08/03 03:08:01;;;;;;;5.28;1.50;;;;;;;26.56;43.64;101243.72;5051637;28;20056;-66
2022/08/03 03:10:27;;;;;;;5.53;2.33;;;;;;;26.53;43.60;101241.44;5051584;28;20052;-67
2022/08/03 03:12:55;;;;;;;4.97;1.90;;;;;;;26.52;44.11;101250.75;5034966;28;20398;-67
2022/08/03 03:15:22;;;;;;;6.78;1.75;;;;;;;26.49;43.52;101240.22;5051455;28;20390;-68
2022/08/03 03:17:49;;;;;;;4.20;1.75;;;;;;;26.48;43.84;101241.25;5051558;28;20025;-67
2022/08/03 03:20:14;;;;;;;3.58;2.00;;;;;;;26.47;44.18;101239.56;5034510;28;20055;-68
2022/08/03 03:22:40;;;;;;;3.28;1.40;;;;;;;26.44;43.58;101237.25;5051356;28;20025;-67
2022/08/03 03:25:06;;;;;;;3.97;1.65;;;;;;;26.45;43.83;101242.56;5034966;28;20445;-66
2022/08/03 03:27:32;;;;;;;4.15;1.52;;;;;;;26.43;43.76;101232.84;5034650;28;20035;-66
2022/08/03 03:29:58;;;;;;;5.78;1.63;;;;;;;26.43;43.48;101243.84;5034918;28;20425;-67
2022/08/03 03:32:26;;;;;;;8.57;1.90;;;;;;;26.44;44.07;101249.09;5034848;28;20027;-67
2022/08/03 03:34:53;;;;;;;4.07;2.25;;;;;;;26.44;44.25;101245.50;5051329;28;20078;-68
2022/08/03 03:37:18;;;;;;;4.00;1.70;;;;;;;26.42;44.14;101240.25;5034714;28;20043;-67
2022/08/03 03:39:43;;;;;;;4.95;1.75;;;;;;;26.42;44.26;101251.25;5051250;28;20033;-67
2022/08/03 03:42:09;;;;;;;3.95;1.83;;;;;;;26.42;43.89;101242.16;5051621;28;20025;-67
2022/08/03 03:44:34;;;;;;;4.20;1.65;;;;;;;26.40;44.28;101245.13;5021730;28;20039;-68
2022/08/03 03:46:59;;;;;;;5.03;1.75;;;;;;;26.39;44.00;101250.84;5054794;28;20078;-67
2022/08/03 03:49:25;;;;;;;8.10;2.08;;;;;;;26.38;44.02;101244.50;5055924;28;20017;-67
2022/08/03 03:51:54;;;;;;;3.55;1.58;;;;;;;26.38;44.35;101241.75;5037958;28;20514;-67
2022/08/03 03:54:20;;;;;;;4.53;1.40;;;;;;;26.41;44.36;101235.00;5054553;28;20032;-67
2022/08/03 03:56:46;;;;;;;5.82;2.40;;;;;;;26.46;44.24;101243.41;5038116;28;20482;-68
2022/08/03 03:59:11;;;;;;;2.70;1.50;;;;;;;26.51;44.32;101233.41;5054283;28;20036;-67
2022/08/03 04:01:37;;;;;;;4.00;1.90;;;;;;;26.59;44.33;101235.03;5054454;28;20024;-66
2022/08/03 04:10:57;;;;;;;5.90;1.95;;;;;;;26.67;44.19;101234.75;5054392;28;20145;-67
2022/08/03 04:12:18;;;;;;;9.98;2.15;;;;;;;26.75;43.85;101226.22;5054445;28;20083;-67
2022/08/03 04:14:45;;;;;;;5.63;2.45;;;;;;;26.79;43.79;101233.00;5037587;28;20033;-67
2022/08/03 04:17:11;;;;;;;8.32;2.03;;;;;;;26.78;44.50;101231.31;5054143;28;20055;-67
2022/08/03 04:19:46;;;;;;;3.50;1.50;;;;;;;26.81;43.69;101238.25;5053958;28;20579;-67
2022/08/03 04:22:15;;;;;;;2.03;1.63;;;;;;;26.80;43.91;101239.34;5054143;28;20021;-68
2022/08/03 04:24:47;;;;;;;5.63;2.03;;;;;;;26.80;44.17;101240.16;5054184;28;20371;-66
2022/08/03 04:27:15;;;;;;;6.10;2.00;;;;;;;26.83;43.81;101233.41;5054026;28;20031;-67
2022/08/03 04:29:44;;;;;;;5.28;1.90;;;;;;;26.82;43.76;101232.56;5055149;28;20025;-67
2022/08/03 04:32:10;;;;;;;5.47;1.67;;;;;;;26.83;43.93;101234.22;5037227;28;20028;-67
2022/08/03 04:34:35;;;;;;;3.30;1.83;;;;;;;26.84;44.26;101241.41;5037493;28;20020;-67
2022/08/03 04:37:05;;;;;;;8.13;2.25;;;;;;;26.83;43.70;101247.97;5055064;28;20066;-67
2022/08/03 04:39:31;;;;;;;5.15;2.20;;;;;;;26.82;44.03;101243.56;5053818;28;20502;-67
2022/08/03 04:42:00;;;;;;;8.02;1.65;;;;;;;26.82;43.74;101249.06;5053826;28;20028;-67
2022/08/03 04:44:27;;;;;;;4.20;1.60;;;;;;;26.86;43.95;101250.25;5037085;28;20031;-66
2022/08/03 04:46:53;;;;;;;12.85;2.33;;;;;;;26.86;44.04;101250.25;5053714;28;20478;-67
2022/08/03 04:49:22;;;;;;;6.78;2.13;;;;;;;26.90;43.68;101250.66;5053550;28;20021;-67
2022/08/03 04:51:48;;;;;;;3.90;2.42;;;;;;;26.90;43.97;101243.25;5053513;28;20486;-67
2022/08/03 04:54:15;;;;;;;7.30;2.10;;;;;;;26.95;44.25;101248.91;5053418;28;20029;-67
2022/08/03 04:56:41;;;;;;;3.50;2.00;;;;;;;27.01;43.94;101258.16;5053458;28;20021;-66
2022/08/03 04:59:07;;;;;;;10.27;2.13;;;;;;;27.11;44.37;101252.97;5053313;28;20431;-68
2022/08/03 05:01:32;;;;;;;5.68;1.65;;;;;;;27.23;44.23;101256.66;5053437;28;20029;-67
2022/08/03 05:03:58;;;;;;;6.18;1.40;;;;;;;27.35;44.25;101259.50;5036919;28;20372;-67
2022/08/03 05:06:23;;;;;;;5.05;2.05;;;;;;;27.50;43.89;101260.03;5053180;28;20079;-67
2022/08/03 05:08:49;;;;;;;7.05;2.00;;;;;;;27.62;43.95;101260.91;5053274;28;20021;-67
2022/08/03 05:11:15;;;;;;;3.92;1.88;;;;;;;27.73;43.62;101263.72;5053113;28;20035;-67
2022/08/03 05:13:40;;;;;;;2.47;1.42;;;;;;;27.91;43.99;101270.28;5053128;28;20025;-67
2022/08/03 05:16:06;;;;;;;3.47;1.50;;;;;;;28.03;43.21;101268.47;5053020;28;20128;-66
2022/08/03 05:18:31;;;;;;;3.45;1.70;;;;;;;28.16;43.17;101268.28;5036195;28;20069;-68
2022/08/03 05:20:56;;;;;;;2.72;1.45;;;;;;;28.24;42.97;101265.19;5024428;28;20041;-66
2022/08/03 05:23:22;;;;;;;9.35;1.70;;;;;;;28.42;43.31;101273.38;5047014;28;20036;-67
2022/08/03 05:25:47;;;;;;;7.90;1.88;;;;;;;28.54;43.52;101271.50;5036460;28;20025;-66
2022/08/03 05:28:13;;;;;;;8.68;2.05;;;;;;;28.69;43.02;101265.56;5019927;28;20029;-67
2022/08/03 05:30:38;;;;;;;6.32;1.63;;;;;;;28.79;42.46;101269.44;5036188;28;20033;-67
2022/08/03 05:33:03;;;;;;;3.78;1.70;;;;;;;28.91;43.09;101277.72;5036181;28;20029;-65
2022/08/03 05:35:30;;;;;;;5.90;1.95;;;;;;;29.06;43.11;101280.84;5052741;28;20021;-66
2022/08/03 05:37:55;;;;;;;6.28;1.58;;;;;;;29.13;42.33;101264.16;5054095;28;20106;-66
2022/08/03 05:40:20;;;;;;;12.00;2.40;;;;;;;29.18;42.50;101273.41;5053836;28;20061;-66
2022/08/03 05:42:46;;;;;;;8.88;1.65;;;;;;;29.29;41.97;101275.34;5053072;28;20033;-66
2022/08/03 05:45:16;;;;;;;6.75;1.67;;;;;;;29.51;42.33;101271.97;5035981;28;20060;-66
2022/08/03 05:47:43;;;;;;;5.07;1.52;;;;;;;29.62;42.56;101279.38;5052650;28;20025;-66
2022/08/03 05:50:09;;;;;;;2.50;1.88;;;;;;;29.79;41.64;101272.00;5053613;28;20021;-66
2022/08/03 05:52:35;;;;;;;11.68;1.77;;;;;;;29.99;41.56;101277.97;5052293;28;20055;-66
2022/08/03 05:55:00;;;;;;;3.15;1.40;;;;;;;30.07;41.87;101272.03;5053673;28;20516;-66
2022/08/03 05:57:25;;;;;;;4.13;2.22;;;;;;;30.30;41.16;101280.25;5019202;28;20055;-66
2022/08/03 05:59:51;;;;;;;2.88;1.80;;;;;;;30.50;40.92;101277.88;5053590;28;20025;-67
2022/08/03 06:02:16;;;;;;;8.00;1.77;;;;;;;30.69;40.63;101269.34;5053563;28;20133;-66
2022/08/03 06:04:42;;;;;;;4.78;1.60;;;;;;;30.82;40.85;101274.56;5051978;28;20098;-66
2022/08/03 06:07:07;;;;;;;5.45;1.98;;;;;;;30.94;40.88;101267.84;5052222;28;20060;-65
2022/08/03 06:09:33;;;;;;;2.78;1.40;;;;;;;31.13;40.41;101274.78;5052272;28;20510;-66
2022/08/03 06:11:58;;;;;;;8.25;1.65;;;;;;;31.27;40.00;101269.72;5053387;28;20420;-66
2022/08/03 06:14:23;;;;;;;5.25;1.88;;;;;;;31.44;40.13;101265.00;5053230;28;20071;-66
2022/08/03 06:16:49;;;;;;;3.88;1.83;;;;;;;31.64;39.82;101273.63;5053286;28;20021;-66
2022/08/03 06:19:14;;;;;;;6.35;1.63;;;;;;;31.82;39.66;101272.47;5051791;28;20052;-66
2022/08/03 06:21:39;;;;;;;3.38;1.50;;;;;;;32.01;39.14;101270.22;5053224;28;20020;-66
2022/08/03 06:24:05;;;;;;;3.88;1.50;;;;;;;32.19;39.03;101275.44;5052003;28;20482;-66
2022/08/03 06:26:31;;;;;;;5.72;1.50;;;;;;;32.36;38.88;101264.22;5051998;28;20056;-65
2022/08/03 06:28:56;;;;;;;4.57;1.38;;;;;;;32.55;38.12;101269.13;5035499;28;20021;-66
2022/08/03 06:31:24;;;;;;;2.10;1.40;;;;;;;32.74;38.27;101267.66;5051794;28;20028;-66
2022/08/03 06:33:50;;;;;;;4.30;1.27;;;;;;;32.91;37.52;101270.28;5035336;28;20471;-66
2022/08/03 06:36:16;;;;;;;3.55;1.63;;;;;;;33.05;37.62;101273.44;5051838;28;20091;-66
2022/08/03 06:38:41;;;;;;;4.90;1.05;;;;;;;33.15;38.11;101273.53;5052894;28;20071;-66
2022/08/03 06:41:06;;;;;;;7.65;1.75;;;;;;;33.24;37.96;101272.78;5051892;28;20470;-66
2022/08/03 06:43:36;;;;;;;4.45;1.52;;;;;;;33.45;37.95;101273.72;5051830;28;20112;-66
2022/08/03 06:46:01;;;;;;;7.55;1.50;;;;;;;33.64;37.04;101266.59;5052943;28;20496;-66
2022/08/03 06:48:27;;;;;;;7.75;1.65;;;;;;;33.81;36.35;101267.22;5052900;28;20028;-66
2022/08/03 06:50:52;;;;;;;7.03;1.55;;;;;;;33.92;37.05;101273.69;5051757;28;20029;-66
2022/08/03 06:53:17;;;;;;;2.72;1.85;;;;;;;34.14;35.79;101268.78;5034939;28;20048;-66
2022/08/03 06:55:43;;;;;;;1.30;1.02;;;;;;;34.36;36.41;101268.53;5051691;28;20094;-66
2022/08/03 06:58:08;;;;;;;4.78;1.08;;;;;;;34.53;35.41;101280.25;5034991;28;20032;-66
2022/08/03 07:00:34;;;;;;;1.52;0.70;;;;;;;34.70;36.01;101268.88;5034856;28;20497;-66
2022/08/03 07:02:59;;;;;;;2.50;0.88;;;;;;;34.80;35.26;101266.06;5035140;28;20079;-66
2022/08/03 07:05:25;;;;;;;1.45;1.13;;;;;;;35.00;35.35;101275.25;5052790;28;20021;-66
2022/08/03 07:07:54;;;;;;;1.27;0.70;;;;;;;35.16;35.19;101269.69;5018536;28;20033;-66
2022/08/03 07:10:19;;;;;;;3.65;1.40;;;;;;;35.31;34.60;101269.66;5034951;28;20029;-66
2022/08/03 07:12:46;;;;;;;2.05;1.20;;;;;;;35.44;34.31;101274.63;5051416;28;20382;-66
2022/08/03 07:15:11;;;;;;;5.07;1.30;;;;;;;35.64;34.45;101280.19;5051481;28;20047;-66
2022/08/03 07:17:37;;;;;;;3.42;0.77;;;;;;;35.84;34.14;101280.09;5053697;28;20021;-67
2022/08/03 07:20:05;;;;;;;2.00;1.20;;;;;;;35.92;34.18;101282.28;5056259;28;20049;-67
2022/08/03 07:22:30;;;;;;;2.67;1.05;;;;;;;36.09;34.08;101282.78;5055319;28;20095;-66
2022/08/03 07:24:56;;;;;;;2.13;1.20;;;;;;;36.30;33.40;101277.06;5055224;28;20053;-67
2022/08/03 07:27:21;;;;;;;3.45;1.33;;;;;;;36.46;33.14;101284.22;5055210;28;20033;-66
2022/08/03 07:29:47;;;;;;;2.38;0.65;;;;;;;36.58;33.21;101288.34;5056292;28;20017;-67
2022/08/03 07:32:12;;;;;;;3.22;0.85;;;;;;;36.73;33.10;101284.59;5038372;28;20036;-66
2022/08/03 07:34:38;;;;;;;3.55;1.05;;;;;;;36.89;32.84;101286.13;5054982;28;20037;-66
2022/08/03 07:37:03;;;;;;;2.65;0.90;;;;;;;37.07;32.82;101293.00;5054980;28;20064;-67
2022/08/03 07:39:28;;;;;;;6.05;0.77;;;;;;;37.23;32.50;101286.13;5054937;28;20120;-67
2022/08/03 07:41:54;;;;;;;7.55;1.40;;;;;;;37.36;31.92;101290.19;5056441;28;20033;-66
2022/08/03 07:44:20;;;;;;;2.40;1.00;;;;;;;37.48;32.22;101287.81;5056118;28;20223;-67
2022/08/03 07:46:46;;;;;;;2.22;1.00;;;;;;;37.58;31.87;101288.53;5054915;28;20032;-66
2022/08/03 07:49:11;;;;;;;1.75;0.93;;;;;;;37.70;31.67;101290.91;5038026;28;20075;-66
2022/08/03 07:51:37;;;;;;;1.00;0.90;;;;;;;37.80;31.58;101290.81;5054601;28;20021;-67
2022/08/03 07:54:03;;;;;;;4.60;1.10;;;;;;;37.95;30.97;101286.97;5055897;28;20052;-67
2022/08/03 07:56:28;;;;;;;3.97;0.80;;;;;;;38.08;30.93;101295.47;5037985;28;20029;-67
2022/08/03 07:58:54;;;;;;;3.40;0.90;;;;;;;38.21;30.86;101288.31;5054470;28;20025;-67
2022/08/03 08:01:21;;;;;;;3.28;1.00;;;;;;;38.37;30.72;101284.16;5054607;28;20021;-67
2022/08/03 08:03:47;;;;;;;2.97;0.90;;;;;;;38.52;30.54;101280.31;5054540;28;20465;-65
2022/08/03 08:06:12;;;;;;;3.58;0.90;;;;;;;38.65;30.14;101282.31;5021501;28;20482;-67
2022/08/03 08:08:38;;;;;;;3.63;0.70;;;;;;;38.75;30.37;101290.56;5054393;28;20113;-66
2022/08/03 08:11:04;;;;;;;2.50;0.88;;;;;;;38.89;29.91;101283.06;5054447;28;20475;-67
2022/08/03 08:13:29;;;;;;;4.60;1.30;;;;;;;39.03;29.36;101281.13;5054347;28;20028;-66
2022/08/03 08:15:55;;;;;;;3.50;0.93;;;;;;;39.16;30.00;101276.69;5054264;28;20039;-67
2022/08/03 08:18:20;;;;;;;2.13;1.17;;;;;;;39.31;29.99;101282.03;5054195;28;20025;-67
2022/08/03 08:20:45;;;;;;;4.65;1.00;;;;;;;39.46;29.42;101270.50;5054154;28;20035;-67
2022/08/03 08:23:11;;;;;;;1.20;0.80;;;;;;;39.56;30.05;101273.94;5054198;28;20075;-68
2022/08/03 08:25:36;;;;;;;2.22;0.82;;;;;;;39.71;29.75;101274.78;5055426;28;20033;-67
2022/08/03 08:28:03;;;;;;;8.05;1.15;;;;;;;39.85;29.57;101281.22;5054814;28;20029;-67
2022/08/03 08:30:29;;;;;;;2.38;0.80;;;;;;;39.98;28.78;101277.59;5054030;28;20025;-67
2022/08/03 08:32:54;;;;;;;4.20;0.40;;;;;;;40.08;28.21;101274.56;5053929;28;20060;-67
2022/08/03 08:35:20;;;;;;;3.58;0.90;;;;;;;40.20;28.24;101272.06;5053944;28;20100;-66
2022/08/03 08:37:45;;;;;;;1.25;0.77;;;;;;;40.32;28.09;101263.03;5053804;28;20121;-67
2022/08/03 08:40:12;;;;;;;1.95;0.55;;;;;;;40.49;28.27;101261.25;5037107;28;20501;-66
2022/08/03 08:42:38;;;;;;;3.28;0.90;;;;;;;40.67;28.67;101267.81;5055128;28;20104;-66
2022/08/03 08:45:05;;;;;;;4.10;0.55;;;;;;;40.84;28.05;101269.94;5053732;28;20064;-66
2022/08/03 08:47:31;;;;;;;3.55;0.47;;;;;;;40.99;27.76;101273.19;5053722;28;20021;-67
2022/08/03 08:49:57;;;;;;;0.70;0.55;;;;;;;41.11;27.54;101278.22;5054788;28;20027;-67
2022/08/03 08:52:25;;;;;;;1.75;0.77;;;;;;;41.25;27.64;101276.13;5037163;28;20035;-66
2022/08/03 08:54:53;;;;;;;1.88;0.52;;;;;;;41.31;27.21;101274.00;5053508;28;20033;-66
2022/08/03 08:57:19;;;;;;;5.82;0.52;;;;;;;41.38;27.13;101292.09;5053558;28;20021;-66
2022/08/03 08:59:44;;;;;;;3.17;0.55;;;;;;;41.39;26.96;101282.53;5036693;28;20459;-67
2022/08/03 09:02:09;;;;;;;3.65;0.63;;;;;;;41.42;26.94;101276.25;5053440;28;20025;-67
2022/08/03 09:04:37;;;;;;;1.30;0.68;;;;;;;41.45;26.92;101274.75;5053400;28;20099;-67
2022/08/03 09:07:03;;;;;;;5.45;0.70;;;;;;;41.42;27.09;101273.44;5053245;28;20025;-67
2022/08/03 09:09:29;;;;;;;6.30;0.70;;;;;;;41.44;26.81;101268.31;5053453;28;20039;-67
2022/08/03 09:11:55;;;;;;;1.67;0.60;;;;;;;41.51;26.54;101277.13;5036632;28;20056;-66
2022/08/03 09:14:20;;;;;;;2.75;0.47;;;;;;;41.58;26.68;101271.84;5054455;28;20059;-66
2022/08/03 09:17:02;;;;;;;3.30;1.00;;;;;;;41.70;26.55;101274.03;5053152;28;20024;-67
2022/08/03 09:19:32;;;;;;;1.52;0.70;;;;;;;41.79;26.68;101269.28;5052919;28;20498;-67
2022/08/03 09:22:09;;;;;;;1.00;0.68;;;;;;;41.93;26.47;101274.78;5053025;28;20025;-67
2022/08/03 09:24:36;;;;;;;2.58;0.70;;;;;;;42.09;26.53;101285.25;5054150;28;20029;-67
2022/08/03 09:27:05;;;;;;;0.75;0.45;;;;;;;42.16;26.08;101274.31;5053013;28;20052;-67
2022/08/03 09:29:31;;;;;;;1.33;0.70;;;;;;;42.21;26.15;101270.53;5052889;28;20029;-67
2022/08/03 09:32:02;;;;;;;2.38;0.40;;;;;;;42.37;25.80;101274.50;5036170;28;20029;-67
2022/08/03 09:34:27;;;;;;;3.17;0.50;;;;;;;42.38;25.72;101270.53;5052853;28;20386;-67
2022/08/03 09:36:53;;;;;;;4.05;0.85;;;;;;;42.41;25.45;101269.06;5036024;28;20025;-67
2022/08/03 09:39:25;;;;;;;1.10;0.40;;;;;;;42.48;25.72;101275.00;5052354;28;20433;-67
2022/08/03 09:42:11;;;;;;;1.70;0.98;;;;;;;42.65;25.58;101275.03;5052182;28;20025;-67
2022/08/03 09:44:39;;;;;;;1.63;0.70;;;;;;;42.74;25.37;101270.22;5052627;28;20053;-68
2022/08/03 09:47:05;;;;;;;3.80;0.80;;;;;;;42.87;25.50;101267.19;5052561;28;20036;-67
2022/08/03 09:49:31;;;;;;;5.05;0.65;;;;;;;42.96;25.35;101272.00;5052573;28;20029;-67
2022/08/03 09:52:00;;;;;;;4.95;1.17;;;;;;;43.09;25.07;101265.31;5052465;28;20457;-67
2022/08/03 09:54:29;;;;;;;1.13;0.50;;;;;;;43.11;24.94;101261.00;5052418;28;20021;-67
2022/08/03 09:56:55;;;;;;;2.25;0.80;;;;;;;43.19;24.78;101262.94;5053551;28;20021;-67
2022/08/03 09:59:28;;;;;;;4.13;0.93;;;;;;;43.36;24.30;101268.56;5052181;28;20372;-66
2022/08/03 10:01:54;;;;;;;3.75;0.60;;;;;;;43.69;24.45;101260.28;5052351;28;20481;-67
2022/08/03 10:04:20;;;;;;;1.02;0.93;;;;;;;44.18;23.99;101255.00;5052283;28;20064;-66
2022/08/03 10:07:02;;;;;;;4.00;3.80;;;;;;;44.81;23.87;101254.56;5035688;28;20067;-67
2022/08/03 10:09:27;;;;;;;3.05;1.77;;;;;;;45.60;23.11;101256.16;5052201;28;20052;-67
2022/08/03 10:11:53;;;;;;;2.28;0.80;;;;;;;46.72;22.49;101258.03;5053336;28;20075;-67
2022/08/03 10:14:18;;;;;;;0.65;0.60;;;;;;;47.89;21.43;101253.44;5052200;28;20390;-67
2022/08/03 10:16:45;;;;;;;5.82;0.88;;;;;;;47.96;21.30;101250.78;5052072;28;20060;-66
2022/08/03 10:19:11;;;;;;;4.78;0.70;;;;;;;47.25;21.81;101254.69;5051951;28;20048;-67
2022/08/03 10:21:38;;;;;;;1.30;0.65;;;;;;;46.72;22.18;101252.38;5052427;28;20024;-66
2022/08/03 10:24:05;;;;;;;7.22;0.98;;;;;;;46.40;22.22;101244.97;5035346;28;20035;-67
2022/08/03 10:26:38;;;;;;;2.92;0.80;;;;;;;46.33;22.28;101244.72;5051988;28;20035;-66
2022/08/03 10:29:07;;;;;;;15.95;2.05;;;;;;;46.30;22.43;101245.44;5035232;28;20110;-67
2022/08/03 10:31:40;;;;;;;24.20;2.90;;;;;;;46.37;22.04;101240.81;5051896;28;20070;-67
2022/08/03 10:34:11;;;;;;;6.45;1.23;;;;;;;46.51;22.27;101246.09;5051860;28;20542;-67
2022/08/03 10:36:38;;;;;;;20.70;2.05;;;;;;;46.64;21.65;101247.69;5035333;28;20020;-66
2022/08/03 10:39:04;;;;;;;2.67;0.73;;;;;;;46.74;21.68;101232.94;5051874;28;20060;-66
2022/08/03 10:41:37;;;;;;;6.75;1.73;;;;;;;46.89;21.34;101235.03;5051932;28;20082;-67
2022/08/03 10:44:08;;;;;;;3.47;0.98;;;;;;;47.00;21.38;101235.31;5051867;28;20096;-66
2022/08/03 10:46:35;;;;;;;1.70;0.82;;;;;;;47.08;21.04;101225.78;5051815;28;20021;-66
2022/08/03 10:49:01;;;;;;;4.80;1.15;;;;;;;47.16;20.86;101219.97;5051800;28;20024;-67
2022/08/03 10:51:30;;;;;;;7.05;1.00;;;;;;;47.30;20.49;101216.66;5052690;28;20491;-67
2022/08/03 10:53:57;;;;;;;4.07;0.75;;;;;;;47.40;20.33;101227.47;5055883;28;20111;-67
2022/08/03 10:59:44;;;;;;;2.03;0.60;;;;;;;47.81;20.04;101220.34;5056900;28;20198;-67
2022/08/03 11:02:11;;;;;;;3.40;0.60;;;;;;;47.92;20.03;101216.56;5056908;28;20025;-67
2022/08/03 11:04:36;;;;;;;2.83;0.82;;;;;;;48.12;20.04;101214.56;5055701;28;20086;-66
2022/08/03 11:07:14;;;;;;;1.27;0.80;;;;;;;48.33;19.70;101206.50;5055428;28;20032;-67
2022/08/03 11:09:41;;;;;;;2.15;0.77;;;;;;;48.32;19.64;101201.19;5056800;28;20382;-67
2022/08/03 11:12:24;;;;;;;1.77;0.75;;;;;;;48.44;19.58;101207.53;5038852;28;20021;-67
2022/08/03 11:14:49;;;;;;;0.40;0.40;;;;;;;48.62;20.07;101210.75;5055525;28;20512;-67
2022/08/03 11:17:15;;;;;;;1.95;0.68;;;;;;;48.74;19.54;101210.59;5055475;28;20049;-68
2022/08/03 11:19:48;;;;;;;3.22;1.25;;;;;;;48.90;19.18;101199.09;5055131;28;20041;-68
2022/08/03 11:22:14;;;;;;;1.52;0.57;;;;;;;48.97;19.40;101207.78;5055357;28;20025;-68
2022/08/03 11:24:40;;;;;;;3.20;0.60;;;;;;;49.01;19.31;101194.41;5055386;28;20024;-68
2022/08/03 11:27:14;;;;;;;1.92;0.80;;;;;;;49.12;19.11;101198.28;5056440;28;20024;-68
2022/08/03 11:29:59;;;;;;;0.90;0.60;;;;;;;49.13;19.21;101194.22;5056419;28;20017;-68
2022/08/03 11:32:38;;;;;;;1.77;0.90;;;;;;;49.18;19.00;101202.44;5056461;28;20025;-67
2022/08/03 11:35:10;;;;;;;1.83;0.60;;;;;;;49.27;18.93;101190.81;5056350;28;20029;-67